Time;durP1;ratioP1;P1;durP2;ratioP2;P2;SDS_P1;SDS_P2;PMS_P1;PMS_P2;Temp;Humidity;BMP_temperature;BMP_pressure;BME280_temperature;BME280_humidity;BME280_pressure;Samples;Min_cycle;Max_cycle;Signal;HPM_P1;HPM_P2
2022/09/11 00:00:32;;;;;;;13.33;10.30;;;;;23.30;100496.00;;;;2090999;28;20600;-52
2022/09/11 00:01:32;;;;;;;12.27;9.60;;;;;23.30;100504.00;;;;2094235;28;21042;-52
2022/09/11 00:02:32;;;;;;;12.07;10.60;;;;;23.30;100499.00;;;;2094105;28;20569;-52
2022/09/11 00:03:33;;;;;;;11.43;9.20;;;;;23.30;100502.00;;;;2094071;28;20271;-52
2022/09/11 00:04:33;;;;;;;10.10;9.10;;;;;23.30;100500.00;;;;2094700;28;20330;-52
2022/09/11 00:05:38;;;;;;;10.23;8.93;;;;;23.30;100506.00;;;;2089335;28;20225;-52
2022/09/11 00:06:38;;;;;;;9.45;8.40;;;;;23.30;100506.00;;;;2086281;28;20221;-52
2022/09/11 00:07:39;;;;;;;10.60;9.60;;;;;23.30;100506.00;;;;2084966;28;20221;-54
2022/09/11 00:08:40;;;;;;;9.40;8.40;;;;;23.30;100502.00;;;;2087166;28;20258;-52
2022/09/11 00:09:40;;;;;;;9.53;8.63;;;;;23.30;100498.00;;;;2094821;28;20218;-53
2022/09/11 00:10:41;;;;;;;9.50;8.33;;;;;23.30;100499.00;;;;2094702;28;20447;-52
2022/09/11 00:11:41;;;;;;;9.10;8.00;;;;;23.30;100454.00;;;;2094781;28;20306;-54
2022/09/11 00:12:42;;;;;;;9.33;8.43;;;;;23.30;100494.00;;;;2093877;28;20740;-52
2022/09/11 00:13:44;;;;;;;8.53;7.63;;;;;23.30;100497.00;;;;2094234;28;20266;-52
2022/09/11 00:14:44;;;;;;;9.15;8.25;;;;;23.30;100492.00;;;;2094602;28;20227;-52
2022/09/11 00:15:44;;;;;;;10.17;7.90;;;;;23.30;100510.00;;;;2094598;28;20239;-52
2022/09/11 00:16:45;;;;;;;10.13;8.03;;;;;23.30;100504.00;;;;2094741;28;20219;-52
2022/09/11 00:17:45;;;;;;;8.23;7.20;;;;;23.30;100504.00;;;;2093693;28;20266;-52
2022/09/11 00:18:45;;;;;;;8.47;7.63;;;;;23.30;100505.00;;;;2094793;28;20234;-52
2022/09/11 00:19:46;;;;;;;8.87;7.90;;;;;23.30;100502.00;;;;2093836;28;20545;-52
2022/09/11 00:20:50;;;;;;;7.83;7.07;;;;;23.30;100503.00;;;;2094789;28;20223;-52
2022/09/11 00:21:51;;;;;;;8.50;7.50;;;;;23.30;100503.00;;;;2094997;28;20208;-53
2022/09/11 00:22:52;;;;;;;7.80;7.00;;;;;23.30;100516.00;;;;2094535;28;20200;-52
2022/09/11 00:23:52;;;;;;;8.52;7.63;;;;;23.30;100519.00;;;;2094073;28;20205;-52
2022/09/11 00:24:53;;;;;;;8.20;7.40;;;;;23.30;100504.00;;;;2086689;28;20650;-52
2022/09/11 00:25:54;;;;;;;7.70;6.95;;;;;23.30;100509.00;;;;2092712;28;20222;-51
2022/09/11 00:26:54;;;;;;;7.70;6.90;;;;;23.30;100510.00;;;;2094886;28;20656;-52
2022/09/11 00:27:54;;;;;;;7.83;7.03;;;;;23.30;100517.00;;;;2094865;28;20298;-52
2022/09/11 00:28:56;;;;;;;8.10;7.07;;;;;23.30;100513.00;;;;2090373;28;20217;-52
2022/09/11 00:29:56;;;;;;;8.25;7.40;;;;;23.30;100357.00;;;;2087384;28;20266;-52
2022/09/11 00:30:58;;;;;;;7.30;6.60;;;;;23.30;100523.00;;;;2095191;28;20304;-52
2022/09/11 00:31:58;;;;;;;7.60;6.80;;;;;23.30;100522.00;;;;2092771;28;20572;-52
2022/09/11 00:32:58;;;;;;;7.70;6.67;;;;;23.30;100512.00;;;;2096445;28;20216;-52
2022/09/11 00:33:59;;;;;;;7.07;6.23;;;;;23.30;100523.00;;;;2095539;28;20621;-52
2022/09/11 00:34:59;;;;;;;6.80;6.10;;;;;23.30;100518.00;;;;2095623;28;20619;-52
2022/09/11 00:36:04;;;;;;;7.97;7.17;;;;;23.30;100515.00;;;;2092093;28;20282;-52
2022/09/11 00:37:05;;;;;;;6.70;6.10;;;;;23.20;100511.00;;;;2088267;28;20248;-52
2022/09/11 00:38:07;;;;;;;6.50;5.90;;;;;23.30;100522.00;;;;2087440;28;20239;-52
2022/09/11 00:39:09;;;;;;;7.15;6.15;;;;;23.30;100500.00;;;;2091680;28;20812;-52
2022/09/11 00:40:10;;;;;;;7.75;6.95;;;;;23.30;100513.00;;;;2096593;28;20588;-52
2022/09/11 00:41:15;;;;;;;7.43;6.30;;;;;23.30;100413.00;;;;2090553;28;20225;-52
2022/09/11 00:42:16;;;;;;;7.28;6.57;;;;;23.30;100524.00;;;;2087656;28;20224;-52
2022/09/11 00:43:16;;;;;;;7.40;5.70;;;;;23.30;100520.00;;;;2088596;28;20252;-52
2022/09/11 00:44:17;;;;;;;6.47;5.87;;;;;23.20;100515.00;;;;2093639;28;20208;-52
2022/09/11 00:45:23;;;;;;;6.13;5.53;;;;;23.20;100511.00;;;;2093205;28;20218;-52
2022/09/11 00:46:33;;;;;;;6.60;5.95;;;;;23.20;100523.00;;;;2088180;28;20225;-52
2022/09/11 00:47:33;;;;;;;6.85;6.15;;;;;23.20;100539.00;;;;2092852;28;20299;-52
2022/09/11 00:48:34;;;;;;;6.40;5.80;;;;;23.20;100521.00;;;;2079429;28;21071;-53
2022/09/11 00:49:45;;;;;;;6.17;5.67;;;;;23.20;100518.00;;;;2079329;28;20992;-52
2022/09/11 00:50:45;;;;;;;6.72;6.03;;;;;23.20;100513.00;;;;2089170;28;20217;-51
2022/09/11 00:51:48;;;;;;;6.03;5.43;;;;;23.20;100519.00;;;;2100204;28;20261;-51
2022/09/11 00:53:00;;;;;;;6.22;5.63;;;;;23.20;100520.00;;;;2090616;28;20224;-53
2022/09/11 00:54:00;;;;;;;6.10;5.50;;;;;23.20;100523.00;;;;2092279;28;20299;-53
2022/09/11 00:55:04;;;;;;;5.73;5.10;;;;;23.30;100527.00;;;;2094689;28;20220;-52
2022/09/11 00:56:05;;;;;;;5.68;4.80;;;;;23.20;100524.00;;;;2078039;28;20729;-52
2022/09/11 00:57:06;;;;;;;7.07;5.43;;;;;23.20;100517.00;;;;2079520;28;20296;-52
2022/09/11 00:58:08;;;;;;;5.47;4.97;;;;;23.20;100529.00;;;;2074343;28;20217;-53
2022/09/11 00:59:08;;;;;;;5.40;4.90;;;;;23.30;100517.00;;;;2079669;28;20224;-53
2022/09/11 01:00:11;;;;;;;5.13;4.63;;;;;23.20;100532.00;;;;2079873;28;20781;-52
2022/09/11 01:01:13;;;;;;;5.80;5.30;;;;;23.20;100539.00;;;;2083540;28;20210;-51
2022/09/11 01:02:15;;;;;;;5.38;4.88;;;;;23.20;100540.00;;;;2088081;28;20246;-52
2022/09/11 01:03:15;;;;;;;6.05;5.45;;;;;23.20;100529.00;;;;2085078;28;20217;-52
2022/09/11 01:04:16;;;;;;;6.20;5.57;;;;;23.20;100539.00;;;;2087514;28;20228;-54
2022/09/11 01:05:17;;;;;;;5.17;4.67;;;;;23.20;100531.00;;;;2094858;28;20212;-51
2022/09/11 01:06:19;;;;;;;5.68;4.95;;;;;23.20;100535.00;;;;2091583;28;20216;-52
2022/09/11 01:07:20;;;;;;;5.03;4.63;;;;;23.20;100530.00;;;;2092358;28;20233;-53
2022/09/11 01:08:21;;;;;;;5.43;4.93;;;;;23.20;100532.00;;;;2084269;28;20674;-52
2022/09/11 01:09:25;;;;;;;5.70;4.80;;;;;23.20;100530.00;;;;2080328;28;20728;-51
2022/09/11 01:10:32;;;;;;;5.00;4.50;;;;;23.20;100544.00;;;;2087533;28;20213;-52
2022/09/11 01:11:48;;;;;;;5.20;4.70;;;;;23.20;100541.00;;;;2088571;28;20216;-51
2022/09/11 01:13:08;;;;;;;4.85;4.45;;;;;23.20;100546.00;;;;2084915;28;20295;-52
2022/09/11 01:14:33;;;;;;;5.70;5.20;;;;;23.20;100538.00;;;;2087818;28;20291;-52
2022/09/11 01:16:01;;;;;;;5.45;4.30;;;;;22.50;100526.00;;;;2093140;28;20220;-51
2022/09/11 01:17:09;;;;;;;5.40;4.90;;;;;23.20;100543.00;;;;2087441;28;20224;-51
2022/09/11 01:18:23;;;;;;;6.95;4.90;;;;;23.20;100552.00;;;;2084718;28;20676;-51
2022/09/11 01:19:36;;;;;;;5.43;4.60;;;;;23.20;100544.00;;;;2087327;28;20224;-51
2022/09/11 01:21:14;;;;;;;4.85;4.22;;;;;23.20;100549.00;;;;2082954;28;20305;-52
2022/09/11 01:22:34;;;;;;;5.38;4.88;;;;;23.20;100545.00;;;;2089076;28;20227;-52
2022/09/11 01:24:10;;;;;;;4.70;4.20;;;;;23.20;100544.00;;;;2092224;28;20220;-51
2022/09/11 01:25:44;;;;;;;5.25;4.75;;;;;23.20;100544.00;;;;2070395;28;20218;-51
2022/09/11 01:27:09;;;;;;;4.18;3.78;;;;;23.20;100540.00;;;;2081184;28;20220;-51
2022/09/11 01:28:14;;;;;;;4.50;4.10;;;;;23.20;100544.00;;;;2089698;28;20324;-52
2022/09/11 01:29:20;;;;;;;4.55;4.15;;;;;23.20;100541.00;;;;2074274;28;20217;-51
2022/09/11 01:30:38;;;;;;;5.18;3.90;;;;;23.20;100534.00;;;;2080177;28;20223;-52
2022/09/11 01:31:51;;;;;;;4.57;3.80;;;;;23.20;100540.00;;;;2087676;28;20217;-52
2022/09/11 01:33:16;;;;;;;4.30;3.90;;;;;23.20;100521.00;;;;2087242;28;20217;-52
2022/09/11 01:34:30;;;;;;;5.40;4.30;;;;;23.20;100547.00;;;;2082351;28;20220;-53
2022/09/11 01:35:48;;;;;;;6.68;4.00;;;;;23.20;100557.00;;;;2087553;28;20216;-53
2022/09/11 01:36:52;;;;;;;5.15;4.45;;;;;23.30;100559.00;;;;2087257;28;20270;-52
2022/09/11 01:38:00;;;;;;;4.55;3.70;;;;;23.30;100561.00;;;;2075864;28;20304;-52
2022/09/11 01:39:01;;;;;;;6.35;4.15;;;;;23.30;100568.00;;;;2087574;28;20205;-52
2022/09/11 01:40:05;;;;;;;4.30;3.55;;;;;23.30;100567.00;;;;2086558;28;20209;-52
2022/09/11 01:41:17;;;;;;;6.45;3.90;;;;;23.20;100558.00;;;;2071083;28;20264;-51
2022/09/11 01:42:18;;;;;;;4.30;3.90;;;;;23.20;100570.00;;;;2074032;28;20311;-53
2022/09/11 01:43:22;;;;;;;4.17;3.87;;;;;23.20;100560.00;;;;2088170;28;20650;-53
2022/09/11 01:44:38;;;;;;;4.20;3.78;;;;;23.20;100574.00;;;;2095470;28;20534;-53
2022/09/11 01:45:40;;;;;;;4.68;4.15;;;;;23.20;100556.00;;;;2095598;28;20256;-51
2022/09/11 01:46:44;;;;;;;4.00;3.70;;;;;23.20;100576.00;;;;2087234;28;20303;-52
2022/09/11 01:47:45;;;;;;;4.10;3.80;;;;;23.20;100565.00;;;;2086407;28;20213;-52
2022/09/11 01:48:46;;;;;;;4.00;3.70;;;;;23.20;100569.00;;;;2079095;28;20693;-52
2022/09/11 01:49:54;;;;;;;5.97;4.00;;;;;23.10;100574.00;;;;2078554;28;20202;-53
2022/09/11 01:50:55;;;;;;;4.07;3.65;;;;;23.20;100589.00;;;;2072262;28;20461;-52
2022/09/11 01:51:58;;;;;;;3.50;3.20;;;;;23.20;100571.00;;;;2087342;28;20216;-52
2022/09/11 01:53:00;;;;;;;3.67;3.38;;;;;23.20;100565.00;;;;2095144;28;20253;-51
2022/09/11 01:54:01;;;;;;;5.18;3.92;;;;;23.20;100570.00;;;;2087094;28;20217;-53
2022/09/11 01:55:12;;;;;;;5.70;3.90;;;;;23.20;100550.00;;;;2087085;28;20300;-52
2022/09/11 01:56:22;;;;;;;4.07;3.63;;;;;23.20;100568.00;;;;2073590;28;20485;-52
2022/09/11 01:57:36;;;;;;;4.82;3.80;;;;;23.10;100570.00;;;;2079109;28;20218;-56
2022/09/11 01:58:36;;;;;;;3.67;3.38;;;;;23.10;100548.00;;;;2081225;28;20820;-53
2022/09/11 01:59:40;;;;;;;3.50;3.20;;;;;22.70;100575.00;;;;2077033;28;20241;-52
2022/09/11 02:00:41;;;;;;;3.50;3.20;;;;;23.20;100574.00;;;;2079179;28;20213;-52
2022/09/11 02:01:44;;;;;;;3.45;3.15;;;;;23.10;100573.00;;;;2087083;28;20307;-52
2022/09/11 02:02:48;;;;;;;4.03;3.67;;;;;23.20;100588.00;;;;2081527;28;20308;-52
2022/09/11 02:03:52;;;;;;;3.90;3.60;;;;;23.20;100558.00;;;;2087734;28;20209;-52
2022/09/11 02:04:58;;;;;;;3.80;3.40;;;;;23.10;100580.00;;;;2078647;28;20205;-52
2022/09/11 02:06:00;;;;;;;5.10;3.72;;;;;23.20;100597.00;;;;2087178;28;20212;-53
2022/09/11 02:07:04;;;;;;;3.95;3.55;;;;;23.10;100580.00;;;;2078749;28;20209;-52
2022/09/11 02:08:16;;;;;;;4.25;3.45;;;;;23.20;100553.00;;;;2078738;28;20269;-53
2022/09/11 02:09:20;;;;;;;4.70;3.67;;;;;23.20;100591.00;;;;2082992;28;20223;-52
2022/09/11 02:10:33;;;;;;;3.28;2.97;;;;;23.20;100592.00;;;;2081585;28;20206;-53
2022/09/11 02:11:35;;;;;;;3.63;3.30;;;;;23.20;100569.00;;;;2085457;28;20708;-51
2022/09/11 02:12:39;;;;;;;4.10;3.72;;;;;23.10;100583.00;;;;2087422;28;20220;-52
2022/09/11 02:14:04;;;;;;;3.88;3.58;;;;;23.10;100583.00;;;;2078408;28;20335;-52
2022/09/11 02:15:05;;;;;;;3.95;3.58;;;;;23.10;100589.00;;;;2085623;28;20216;-53
2022/09/11 02:16:48;;;;;;;3.50;3.20;;;;;23.10;100577.00;;;;2086814;28;20219;-52
2022/09/11 02:17:54;;;;;;;3.97;3.58;;;;;23.10;100577.00;;;;2089154;28;20219;-52
2022/09/11 02:19:00;;;;;;;4.13;3.72;;;;;23.10;100588.00;;;;2087639;28;20247;-52
2022/09/11 02:20:00;;;;;;;3.67;3.38;;;;;23.10;100571.00;;;;2094229;28;20219;-52
2022/09/11 02:21:00;;;;;;;3.60;3.30;;;;;23.10;100579.00;;;;2095111;28;20303;-52
2022/09/11 02:22:01;;;;;;;3.30;3.10;;;;;23.10;100578.00;;;;2095074;28;20204;-53
2022/09/11 02:23:01;;;;;;;3.93;3.63;;;;;23.10;100577.00;;;;2095328;28;20245;-52
2022/09/11 02:24:02;;;;;;;5.50;3.50;;;;;23.10;100587.00;;;;2094779;28;20638;-52
2022/09/11 02:25:03;;;;;;;3.90;3.47;;;;;23.10;100579.00;;;;2086867;28;20220;-52
2022/09/11 02:26:03;;;;;;;3.83;3.53;;;;;23.10;100579.00;;;;2095169;28;20293;-53
2022/09/11 02:27:05;;;;;;;3.50;3.20;;;;;23.10;100577.00;;;;2095360;28;20212;-53
2022/09/11 02:28:06;;;;;;;3.70;3.38;;;;;23.10;100582.00;;;;2094053;28;20208;-52
2022/09/11 02:29:06;;;;;;;4.33;3.57;;;;;23.10;100590.00;;;;2086724;28;20200;-53
2022/09/11 02:30:07;;;;;;;3.67;3.37;;;;;23.10;100578.00;;;;2094908;28;20205;-53
2022/09/11 02:31:08;;;;;;;4.22;3.83;;;;;23.10;100588.00;;;;2095652;28;20205;-53
2022/09/11 02:32:09;;;;;;;4.73;3.53;;;;;23.10;100575.00;;;;2094761;28;20292;-51
2022/09/11 02:33:36;;;;;;;3.75;3.45;;;;;23.10;100580.00;;;;2094823;28;20222;-52
2022/09/11 02:34:38;;;;;;;3.70;3.20;;;;;23.10;100574.00;;;;2086004;28;20296;-52
2022/09/11 02:35:42;;;;;;;4.13;3.83;;;;;23.10;100554.00;;;;2078214;28;20214;-53
2022/09/11 02:36:48;;;;;;;4.00;3.65;;;;;23.10;100586.00;;;;2086987;28;20713;-53
2022/09/11 02:38:10;;;;;;;3.78;3.47;;;;;23.10;100586.00;;;;2093578;28;20212;-52
2022/09/11 02:39:32;;;;;;;4.05;3.17;;;;;23.10;100586.00;;;;2094435;28;20237;-52
2022/09/11 02:40:42;;;;;;;5.25;3.70;;;;;23.10;100572.00;;;;2094977;28;20805;-53
2022/09/11 02:41:58;;;;;;;4.53;3.80;;;;;23.10;100576.00;;;;2094815;28;20228;-53
2022/09/11 02:42:58;;;;;;;4.05;3.50;;;;;23.10;100583.00;;;;2090762;28;20220;-52
2022/09/11 02:44:05;;;;;;;4.00;3.70;;;;;23.10;100589.00;;;;2087336;28;20228;-51
2022/09/11 02:45:05;;;;;;;4.18;3.60;;;;;23.10;100608.00;;;;2086283;28;20370;-51
2022/09/11 02:46:15;;;;;;;3.50;3.20;;;;;23.10;100580.00;;;;2086511;28;20685;-52
2022/09/11 02:47:36;;;;;;;4.95;3.28;;;;;23.10;100520.00;;;;2087173;28;20582;-52
2022/09/11 02:48:55;;;;;;;3.70;3.38;;;;;23.10;100589.00;;;;2092470;28;20564;-52
2022/09/11 02:50:11;;;;;;;4.50;4.10;;;;;23.10;100579.00;;;;2095233;28;20227;-52
2022/09/11 02:51:17;;;;;;;3.50;3.20;;;;;23.10;100587.00;;;;2089694;28;20292;-52
2022/09/11 02:52:39;;;;;;;4.95;3.90;;;;;23.10;100582.00;;;;2086742;28;20251;-52
2022/09/11 02:54:01;;;;;;;4.13;3.65;;;;;23.10;100587.00;;;;2087113;28;20881;-52
2022/09/11 02:55:22;;;;;;;3.67;3.38;;;;;23.10;100586.00;;;;2092142;28;20218;-53
2022/09/11 02:56:45;;;;;;;4.13;3.83;;;;;23.10;100592.00;;;;2095440;28;20216;-53
2022/09/11 02:58:20;;;;;;;3.60;3.30;;;;;23.10;100571.00;;;;2093709;28;20216;-52
2022/09/11 02:59:30;;;;;;;3.65;3.33;;;;;23.10;100596.00;;;;2093411;28;20900;-51
2022/09/11 03:00:30;;;;;;;4.07;3.75;;;;;23.10;100594.00;;;;2089981;28;20222;-53
2022/09/11 03:01:46;;;;;;;4.90;3.77;;;;;23.10;100594.00;;;;2093371;28;20212;-52
2022/09/11 03:02:47;;;;;;;4.30;3.80;;;;;23.10;100591.00;;;;2086042;28;20292;-52
2022/09/11 03:03:47;;;;;;;4.10;3.70;;;;;23.10;100595.00;;;;2086721;28;20216;-52
2022/09/11 03:04:47;;;;;;;4.33;3.93;;;;;23.10;100599.00;;;;2086906;28;20212;-52
2022/09/11 03:05:48;;;;;;;4.13;3.83;;;;;23.10;100594.00;;;;2087397;28;20208;-52
2022/09/11 03:06:48;;;;;;;4.53;4.13;;;;;23.10;100596.00;;;;2086782;28;20631;-53
2022/09/11 03:07:49;;;;;;;5.13;4.00;;;;;23.10;100599.00;;;;2085600;28;20213;-52
2022/09/11 03:08:49;;;;;;;4.87;4.47;;;;;23.10;100601.00;;;;2086640;28;20580;-52
2022/09/11 03:09:50;;;;;;;5.20;4.70;;;;;23.10;100594.00;;;;2087129;28;20209;-52
2022/09/11 03:10:51;;;;;;;4.90;4.50;;;;;23.10;100600.00;;;;2087121;28;20654;-52
2022/09/11 03:11:51;;;;;;;5.70;5.10;;;;;22.50;100600.00;;;;2086719;28;20217;-53
2022/09/11 03:12:51;;;;;;;4.70;4.30;;;;;23.10;100600.00;;;;2092744;28;20232;-53
2022/09/11 03:13:52;;;;;;;4.93;4.40;;;;;23.10;100596.00;;;;2095178;28;20212;-52
2022/09/11 03:14:52;;;;;;;5.63;4.73;;;;;23.10;100595.00;;;;2095125;28;20224;-52
2022/09/11 03:15:53;;;;;;;5.50;5.00;;;;;23.10;100598.00;;;;2087053;28;20259;-52
2022/09/11 03:16:54;;;;;;;6.87;5.20;;;;;23.10;100592.00;;;;2087248;28;20256;-52
2022/09/11 03:17:56;;;;;;;5.57;5.07;;;;;22.70;100594.00;;;;2086093;28;20590;-52
2022/09/11 03:18:57;;;;;;;6.35;5.70;;;;;23.10;100604.00;;;;2087190;28;20212;-52
2022/09/11 03:19:57;;;;;;;5.77;5.27;;;;;23.10;100609.00;;;;2086890;28;20266;-52
2022/09/11 03:20:57;;;;;;;5.77;5.27;;;;;23.10;100612.00;;;;2086968;28;20237;-53
2022/09/11 03:21:58;;;;;;;5.13;4.73;;;;;23.10;100604.00;;;;2087104;28;20636;-52
2022/09/11 03:22:58;;;;;;;5.60;5.10;;;;;23.10;100601.00;;;;2080767;28;20622;-52
2022/09/11 03:23:58;;;;;;;6.57;5.87;;;;;23.10;100611.00;;;;2091787;28;20620;-53
2022/09/11 03:24:59;;;;;;;6.10;5.60;;;;;23.10;100609.00;;;;2095330;28;20394;-52
2022/09/11 03:25:59;;;;;;;6.70;6.10;;;;;23.10;100607.00;;;;2092975;28;20247;-51
2022/09/11 03:27:00;;;;;;;6.10;5.60;;;;;23.10;100602.00;;;;2095217;28;20216;-52
2022/09/11 03:28:00;;;;;;;6.43;5.83;;;;;23.10;100606.00;;;;2094207;28;20215;-52
2022/09/11 03:29:02;;;;;;;8.63;6.55;;;;;23.10;100612.00;;;;2095291;28;20228;-52
2022/09/11 03:30:03;;;;;;;6.30;5.70;;;;;23.10;100605.00;;;;2095170;28;20288;-53
2022/09/11 03:31:03;;;;;;;7.50;6.80;;;;;23.10;100604.00;;;;2093912;28;20454;-53
2022/09/11 03:32:04;;;;;;;6.80;6.20;;;;;23.10;100610.00;;;;2095152;28;20451;-53
2022/09/11 03:33:04;;;;;;;6.60;5.93;;;;;23.10;100610.00;;;;2095302;28;20220;-52
2022/09/11 03:34:05;;;;;;;6.77;6.07;;;;;23.10;100604.00;;;;2093648;28;20632;-52
2022/09/11 03:35:05;;;;;;;8.07;7.27;;;;;23.10;100607.00;;;;2094616;28;20645;-52
2022/09/11 03:36:06;;;;;;;9.60;7.30;;;;;23.10;100614.00;;;;2091241;28;20737;-51
2022/09/11 03:37:06;;;;;;;7.53;6.67;;;;;23.10;100619.00;;;;2094212;28;20212;-51
2022/09/11 03:38:06;;;;;;;7.83;6.80;;;;;23.10;100615.00;;;;2093471;28;20208;-52
2022/09/11 03:39:07;;;;;;;8.90;7.30;;;;;23.10;100617.00;;;;2094687;28;20565;-52
2022/09/11 03:40:07;;;;;;;7.50;6.80;;;;;23.10;100624.00;;;;2087189;28;20723;-52
2022/09/11 03:41:08;;;;;;;8.00;7.20;;;;;23.10;100634.00;;;;2094021;28;20582;-57
2022/09/11 03:42:11;;;;;;;7.00;6.30;;;;;23.10;100621.00;;;;2094623;28;20215;-55
2022/09/11 03:43:12;;;;;;;7.65;6.93;;;;;23.10;100626.00;;;;2090698;28;20224;-52
2022/09/11 03:44:12;;;;;;;8.70;7.60;;;;;23.10;100631.00;;;;2094453;28;20208;-52
2022/09/11 03:45:13;;;;;;;8.60;7.57;;;;;23.10;100631.00;;;;2095343;28;20224;-52
2022/09/11 03:46:14;;;;;;;7.80;7.00;;;;;23.10;100627.00;;;;2090943;28;20212;-51
2022/09/11 03:47:14;;;;;;;8.10;7.30;;;;;23.10;100626.00;;;;2094205;28;20584;-51
2022/09/11 03:48:15;;;;;;;8.73;7.83;;;;;23.10;100625.00;;;;2091257;28;20309;-52
2022/09/11 03:49:15;;;;;;;9.40;8.50;;;;;23.10;100625.00;;;;2095443;28;20210;-52
2022/09/11 03:50:16;;;;;;;9.50;8.13;;;;;23.10;100632.00;;;;2095506;28;20454;-52
2022/09/11 03:51:16;;;;;;;9.20;7.57;;;;;23.10;100622.00;;;;2092322;28;20209;-52
2022/09/11 03:52:16;;;;;;;10.03;7.60;;;;;23.00;100630.00;;;;2090818;28;20204;-52
2022/09/11 03:53:17;;;;;;;8.33;7.53;;;;;23.00;100628.00;;;;2086933;28;20278;-52
2022/09/11 03:54:17;;;;;;;9.97;8.13;;;;;23.10;100639.00;;;;2092308;28;20227;-52
2022/09/11 03:55:18;;;;;;;8.27;7.37;;;;;23.10;100633.00;;;;2091693;28;20208;-51
2022/09/11 03:56:19;;;;;;;8.50;7.63;;;;;23.10;100642.00;;;;2087016;28;20208;-53
2022/09/11 03:57:19;;;;;;;8.95;7.95;;;;;23.10;100657.00;;;;2091480;28;20360;-53
2022/09/11 03:58:20;;;;;;;9.23;8.13;;;;;23.10;100633.00;;;;2095160;28;20781;-51
2022/09/11 03:59:20;;;;;;;10.93;9.83;;;;;23.10;100641.00;;;;2093691;28;20739;-52
2022/09/11 04:00:21;;;;;;;9.57;8.30;;;;;23.10;100636.00;;;;2093395;28;20277;-51
2022/09/11 04:01:21;;;;;;;10.40;9.30;;;;;23.10;100643.00;;;;2091586;28;20215;-52
2022/09/11 04:02:22;;;;;;;9.93;8.93;;;;;23.00;100680.00;;;;2090157;28;20209;-53
2022/09/11 04:03:22;;;;;;;10.35;9.20;;;;;23.10;100636.00;;;;2091517;28;20447;-52
2022/09/11 04:04:23;;;;;;;10.07;8.53;;;;;23.10;100637.00;;;;2093448;28;20212;-52
2022/09/11 04:05:24;;;;;;;11.30;9.53;;;;;23.10;100643.00;;;;2093158;28;20215;-52
2022/09/11 04:06:24;;;;;;;9.90;8.90;;;;;23.10;100636.00;;;;2091497;28;20220;-51
2022/09/11 04:07:24;;;;;;;10.13;9.10;;;;;23.10;100643.00;;;;2094500;28;20833;-52
2022/09/11 04:08:25;;;;;;;10.90;9.17;;;;;23.10;100634.00;;;;2093386;28;20692;-52
2022/09/11 04:09:25;;;;;;;10.90;9.80;;;;;23.10;100636.00;;;;2088421;28;20208;-52
2022/09/11 04:10:26;;;;;;;11.63;9.70;;;;;23.00;100646.00;;;;2092359;28;20268;-52
2022/09/11 04:11:26;;;;;;;11.20;9.97;;;;;23.10;100642.00;;;;2088680;28;20205;-52
2022/09/11 04:12:27;;;;;;;12.13;10.30;;;;;23.10;100649.00;;;;2092156;28;20311;-52
2022/09/11 04:13:35;;;;;;;12.88;10.88;;;;;23.10;100645.00;;;;2096670;28;20579;-52
2022/09/11 04:14:35;;;;;;;11.52;9.65;;;;;23.10;100648.00;;;;2096875;28;20224;-52
2022/09/11 04:15:36;;;;;;;10.87;9.77;;;;;23.10;100646.00;;;;2096752;28;20211;-53
2022/09/11 04:16:37;;;;;;;13.03;10.30;;;;;23.10;100650.00;;;;2093199;28;20588;-52
2022/09/11 04:17:37;;;;;;;11.30;9.90;;;;;23.10;100652.00;;;;2091101;28;20220;-52
2022/09/11 04:18:38;;;;;;;10.17;9.03;;;;;23.00;100655.00;;;;2091047;28;20227;-52
2022/09/11 04:19:38;;;;;;;13.90;11.97;;;;;23.10;100655.00;;;;2092969;28;20211;-53
2022/09/11 04:20:38;;;;;;;14.40;11.90;;;;;23.10;100648.00;;;;2089096;28;20285;-52
2022/09/11 04:21:39;;;;;;;12.13;10.13;;;;;23.10;100658.00;;;;2093592;28;20216;-52
2022/09/11 04:22:40;;;;;;;14.97;12.23;;;;;23.10;100655.00;;;;2094933;28;20212;-52
2022/09/11 04:23:40;;;;;;;13.25;11.00;;;;;23.10;100654.00;;;;2092503;28;20213;-52
2022/09/11 04:24:41;;;;;;;11.83;10.57;;;;;23.00;100655.00;;;;2091805;28;20216;-52
2022/09/11 04:25:41;;;;;;;13.23;11.30;;;;;23.10;100499.00;;;;2089071;28;20212;-52
2022/09/11 04:26:41;;;;;;;12.57;11.17;;;;;23.10;100653.00;;;;2092527;28;20270;-51
2022/09/11 04:27:42;;;;;;;14.93;11.93;;;;;23.10;100646.00;;;;2096224;28;20231;-51
2022/09/11 04:28:42;;;;;;;13.07;11.30;;;;;23.10;100646.00;;;;2096940;28;20596;-52
2022/09/11 04:29:43;;;;;;;14.70;11.20;;;;;23.10;100640.00;;;;2088445;28;20587;-52
2022/09/11 04:30:43;;;;;;;12.73;11.43;;;;;23.10;100654.00;;;;2088419;28;20368;-52
2022/09/11 04:31:43;;;;;;;12.47;10.97;;;;;23.10;100652.00;;;;2094855;28;20219;-51
2022/09/11 04:32:45;;;;;;;12.57;11.23;;;;;23.10;100657.00;;;;2093350;28;20216;-52
2022/09/11 04:33:45;;;;;;;15.45;12.88;;;;;23.10;100652.00;;;;2089361;28;20307;-55
2022/09/11 04:34:45;;;;;;;14.37;11.87;;;;;23.10;100657.00;;;;2097049;28;20555;-55
2022/09/11 04:35:46;;;;;;;15.10;12.10;;;;;23.10;100661.00;;;;2090708;28;20237;-52
2022/09/11 04:36:47;;;;;;;14.57;11.43;;;;;23.10;100648.00;;;;2088683;28;20209;-53
2022/09/11 04:37:48;;;;;;;14.00;11.83;;;;;23.10;100657.00;;;;2091654;28;20450;-52
2022/09/11 04:38:53;;;;;;;15.70;13.00;;;;;23.10;100655.00;;;;2095978;28;20204;-52
2022/09/11 04:39:53;;;;;;;15.65;12.88;;;;;22.50;100651.00;;;;2097063;28;20516;-52
2022/09/11 04:40:54;;;;;;;16.50;12.50;;;;;23.00;100652.00;;;;2092764;28;20258;-52
2022/09/11 04:41:54;;;;;;;16.03;12.60;;;;;23.10;100655.00;;;;2096732;28;20205;-51
2022/09/11 04:42:55;;;;;;;16.10;12.80;;;;;23.10;100658.00;;;;2096991;28;20214;-52
2022/09/11 04:43:56;;;;;;;15.03;12.37;;;;;23.10;100647.00;;;;2093172;28;20239;-52
2022/09/11 04:44:56;;;;;;;14.52;12.35;;;;;23.10;100648.00;;;;2092626;28;20208;-51
2022/09/11 04:46:09;;;;;;;13.23;11.47;;;;;23.10;100657.00;;;;2088629;28;20209;-51
2022/09/11 04:47:09;;;;;;;13.77;12.20;;;;;23.10;100655.00;;;;2088371;28;20580;-52
2022/09/11 04:48:09;;;;;;;15.30;13.10;;;;;23.00;100660.00;;;;2088604;28;20228;-52
2022/09/11 04:49:10;;;;;;;21.30;14.23;;;;;23.10;100659.00;;;;2095180;28;20314;-52
2022/09/11 04:50:11;;;;;;;16.73;13.80;;;;;23.10;100674.00;;;;2094963;28;20216;-52
2022/09/11 04:51:19;;;;;;;15.00;12.70;;;;;23.10;100654.00;;;;2096412;28;20586;-52
2022/09/11 04:52:19;;;;;;;18.45;13.43;;;;;23.10;100657.00;;;;2078173;28;20263;-52
2022/09/11 04:53:20;;;;;;;17.13;13.50;;;;;23.10;100660.00;;;;2081489;28;20220;-52
2022/09/11 04:54:20;;;;;;;17.10;14.10;;;;;23.10;100657.00;;;;2088705;28;20209;-52
2022/09/11 04:55:21;;;;;;;18.03;14.70;;;;;23.10;100653.00;;;;2088263;28;20209;-52
2022/09/11 04:56:23;;;;;;;18.10;14.25;;;;;23.10;100659.00;;;;2093805;28;20311;-51
2022/09/11 04:57:23;;;;;;;16.50;13.90;;;;;23.00;100656.00;;;;2090179;28;20230;-52
2022/09/11 04:58:24;;;;;;;19.90;15.00;;;;;23.00;100664.00;;;;2094406;28;20208;-51
2022/09/11 04:59:24;;;;;;;18.47;14.30;;;;;23.10;100663.00;;;;2086609;28;20236;-52
2022/09/11 05:00:25;;;;;;;20.13;14.77;;;;;23.10;100667.00;;;;2087123;28;20447;-52
2022/09/11 05:01:26;;;;;;;17.07;14.53;;;;;23.00;100655.00;;;;2086783;28;20213;-52
2022/09/11 05:02:26;;;;;;;16.23;13.75;;;;;23.10;100656.00;;;;2090381;28;20575;-52
2022/09/11 05:03:26;;;;;;;19.90;15.57;;;;;23.00;100660.00;;;;2092068;28;20256;-53
2022/09/11 05:04:27;;;;;;;17.97;14.67;;;;;23.00;100662.00;;;;2090553;28;20212;-52
2022/09/11 05:05:27;;;;;;;20.80;15.53;;;;;23.00;100659.00;;;;2093604;28;20238;-52
2022/09/11 05:06:29;;;;;;;16.83;13.93;;;;;23.10;100657.00;;;;2092974;28;20254;-53
2022/09/11 05:07:30;;;;;;;17.83;14.75;;;;;23.10;100656.00;;;;2078078;28;20220;-53
2022/09/11 05:08:32;;;;;;;17.38;14.15;;;;;23.10;100657.00;;;;2098992;28;20220;-53
2022/09/11 05:09:32;;;;;;;17.08;14.45;;;;;23.00;100659.00;;;;2096407;28;20216;-52
2022/09/11 05:10:36;;;;;;;18.93;15.10;;;;;23.00;100660.00;;;;2089177;28;20550;-52
2022/09/11 05:11:38;;;;;;;22.52;14.43;;;;;23.10;100666.00;;;;2091024;28;20222;-52
2022/09/11 05:12:38;;;;;;;18.70;15.07;;;;;23.10;100670.00;;;;2087530;28;20213;-52
2022/09/11 05:13:39;;;;;;;19.03;15.30;;;;;23.10;100666.00;;;;2087010;28;20216;-52
2022/09/11 05:14:40;;;;;;;17.20;14.93;;;;;23.10;100667.00;;;;2091120;28;20212;-52